sensor_id;sensor_type;location;lat;lon;timestamp;pressure;altitude;pressure_sealevel;temperature;humidity
30935;BME280;51033;42.648;23.292;2024-03-23T00:53:51;93887.03;;;5.06;42.86
30935;BME280;51033;42.648;23.292;2024-03-23T00:56:17;93882.91;;;4.95;43.23
30935;BME280;51033;42.648;23.292;2024-03-23T00:58:42;93884.28;;;4.88;43.51
30935;BME280;51033;42.648;23.292;2024-03-23T01:01:07;93889.22;;;4.94;43.30
30935;BME280;51033;42.648;23.292;2024-03-23T01:03:33;93881.22;;;5.09;42.76
30935;BME280;51033;42.648;23.292;2024-03-23T01:06:02;93878.06;;;5.07;42.58
30935;BME280;51033;42.648;23.292;2024-03-23T01:08:28;93871.91;;;4.88;42.79
30935;BME280;51033;42.648;23.292;2024-03-23T01:10:58;93863.75;;;4.85;42.76
30935;BME280;51033;42.648;23.292;2024-03-23T01:13:24;93863.97;;;4.93;42.46
30935;BME280;51033;42.648;23.292;2024-03-23T01:15:50;93858.16;;;4.91;42.42
30935;BME280;51033;42.648;23.292;2024-03-23T01:18:17;93865.06;;;4.87;42.63
30935;BME280;51033;42.648;23.292;2024-03-23T01:20:43;93864.53;;;4.85;42.85
30935;BME280;51033;42.648;23.292;2024-03-23T01:23:08;93867.53;;;4.74;43.27
30935;BME280;51033;42.648;23.292;2024-03-23T01:25:33;93863.25;;;4.83;43.15
30935;BME280;51033;42.648;23.292;2024-03-23T01:27:59;93873.53;;;4.84;43.21
30935;BME280;51033;42.648;23.292;2024-03-23T01:30:24;93864.50;;;4.90;42.88
30935;BME280;51033;42.648;23.292;2024-03-23T01:32:49;93865.03;;;4.92;42.85
30935;BME280;51033;42.648;23.292;2024-03-23T01:35:15;93866.16;;;4.81;43.21
30935;BME280;51033;42.648;23.292;2024-03-23T01:37:40;93869.94;;;4.65;43.89
30935;BME280;51033;42.648;23.292;2024-03-23T01:40:06;93872.47;;;3.82;45.54
30935;BME280;51033;42.648;23.292;2024-03-23T01:42:31;93874.91;;;4.27;44.89
30935;BME280;51033;42.648;23.292;2024-03-23T01:44:57;93862.78;;;4.37;44.27
30935;BME280;51033;42.648;23.292;2024-03-23T01:47:22;93875.31;;;4.55;44.38
30935;BME280;51033;42.648;23.292;2024-03-23T01:49:48;93869.50;;;4.58;44.19
30935;BME280;51033;42.648;23.292;2024-03-23T01:52:13;93875.09;;;4.46;44.33
30935;BME280;51033;42.648;23.292;2024-03-23T01:54:40;93870.06;;;4.55;44.14
30935;BME280;51033;42.648;23.292;2024-03-23T01:57:06;93870.50;;;4.62;43.49
30935;BME280;51033;42.648;23.292;2024-03-23T01:59:31;93870.75;;;4.65;42.99
30935;BME280;51033;42.648;23.292;2024-03-23T02:01:57;93866.88;;;4.53;43.47
30935;BME280;51033;42.648;23.292;2024-03-23T02:04:22;93872.22;;;4.43;43.46
30935;BME280;51033;42.648;23.292;2024-03-23T02:06:48;93867.19;;;4.46;43.52
30935;BME280;51033;42.648;23.292;2024-03-23T02:09:13;93875.91;;;4.42;43.42
30935;BME280;51033;42.648;23.292;2024-03-23T02:11:39;93869.63;;;4.27;43.55
30935;BME280;51033;42.648;23.292;2024-03-23T02:14:04;93876.44;;;4.44;43.09
30935;BME280;51033;42.648;23.292;2024-03-23T02:16:29;93877.47;;;4.48;42.92
30935;BME280;51033;42.648;23.292;2024-03-23T02:18:55;93879.13;;;4.28;43.14
30935;BME280;51033;42.648;23.292;2024-03-23T02:21:20;93873.88;;;4.23;43.54
30935;BME280;51033;42.648;23.292;2024-03-23T02:23:46;93884.41;;;4.23;43.59
30935;BME280;51033;42.648;23.292;2024-03-23T02:26:11;93880.19;;;4.22;43.57
30935;BME280;51033;42.648;23.292;2024-03-23T02:28:36;93876.03;;;4.11;44.04
30935;BME280;51033;42.648;23.292;2024-03-23T02:31:02;93890.75;;;4.17;44.04
30935;BME280;51033;42.648;23.292;2024-03-23T02:33:29;93879.16;;;4.23;43.90
30935;BME280;51033;42.648;23.292;2024-03-23T02:35:58;93880.72;;;4.24;43.59
30935;BME280;51033;42.648;23.292;2024-03-23T02:38:23;93879.91;;;4.34;43.32
30935;BME280;51033;42.648;23.292;2024-03-23T02:40:49;93879.16;;;4.23;43.68
30935;BME280;51033;42.648;23.292;2024-03-23T02:43:14;93869.19;;;4.15;43.13
30935;BME280;51033;42.648;23.292;2024-03-23T02:45:40;93868.44;;;4.05;43.41
30935;BME280;51033;42.648;23.292;2024-03-23T02:48:05;93869.69;;;4.17;43.36
30935;BME280;51033;42.648;23.292;2024-03-23T02:50:31;93871.81;;;4.20;43.08
30935;BME280;51033;42.648;23.292;2024-03-23T02:52:56;93876.78;;;3.53;45.20
30935;BME280;51033;42.648;23.292;2024-03-23T02:55:21;93867.19;;;3.92;44.34
30935;BME280;51033;42.648;23.292;2024-03-23T02:57:47;93871.41;;;3.88;44.14
30935;BME280;51033;42.648;23.292;2024-03-23T03:00:12;93869.81;;;3.87;44.61
30935;BME280;51033;42.648;23.292;2024-03-23T03:02:38;93868.22;;;3.96;44.18
30935;BME280;51033;42.648;23.292;2024-03-23T03:05:05;93867.50;;;3.80;44.58
30935;BME280;51033;42.648;23.292;2024-03-23T03:07:31;93864.41;;;3.63;44.93
30935;BME280;51033;42.648;23.292;2024-03-23T03:09:57;93868.59;;;3.64;44.97
30935;BME280;51033;42.648;23.292;2024-03-23T03:12:22;93865.19;;;3.64;44.73
30935;BME280;51033;42.648;23.292;2024-03-23T03:14:48;93872.03;;;3.60;44.90
30935;BME280;51033;42.648;23.292;2024-03-23T03:17:13;93867.25;;;3.77;44.79
30935;BME280;51033;42.648;23.292;2024-03-23T03:19:40;93871.00;;;3.61;45.05
30935;BME280;51033;42.648;23.292;2024-03-23T03:22:05;93877.56;;;3.58;45.35
30935;BME280;51033;42.648;23.292;2024-03-23T03:24:30;93871.72;;;3.76;44.86
30935;BME280;51033;42.648;23.292;2024-03-23T03:26:56;93873.59;;;3.66;45.11
30935;BME280;51033;42.648;23.292;2024-03-23T03:29:22;93873.13;;;3.49;45.68
30935;BME280;51033;42.648;23.292;2024-03-23T03:31:48;93878.38;;;3.49;45.93
30935;BME280;51033;42.648;23.292;2024-03-23T03:34:15;93876.00;;;3.57;45.65
30935;BME280;51033;42.648;23.292;2024-03-23T03:36:40;93869.16;;;3.56;45.81
30935;BME280;51033;42.648;23.292;2024-03-23T03:39:06;93874.16;;;3.53;45.79
30935;BME280;51033;42.648;23.292;2024-03-23T03:41:32;93856.31;;;3.34;46.27
30935;BME280;51033;42.648;23.292;2024-03-23T03:43:58;93875.50;;;3.40;46.31
30935;BME280;51033;42.648;23.292;2024-03-23T03:46:30;93871.31;;;3.24;46.77
30935;BME280;51033;42.648;23.292;2024-03-23T03:48:55;93871.84;;;3.31;46.83
30935;BME280;51033;42.648;23.292;2024-03-23T03:51:21;93880.19;;;3.53;46.09
30935;BME280;51033;42.648;23.292;2024-03-23T03:53:46;93879.97;;;3.39;46.46
30935;BME280;51033;42.648;23.292;2024-03-23T03:56:11;93875.75;;;3.38;46.35
30935;BME280;51033;42.648;23.292;2024-03-23T03:58:37;93877.91;;;3.31;46.52
30935;BME280;51033;42.648;23.292;2024-03-23T04:01:02;93873.66;;;3.40;46.38
30935;BME280;51033;42.648;23.292;2024-03-23T04:03:27;93872.31;;;3.58;45.94
30935;BME280;51033;42.648;23.292;2024-03-23T04:05:54;93871.47;;;3.68;45.56
30935;BME280;51033;42.648;23.292;2024-03-23T04:08:20;93872.31;;;3.58;45.73
30935;BME280;51033;42.648;23.292;2024-03-23T04:10:45;93866.31;;;3.48;45.97
30935;BME280;51033;42.648;23.292;2024-03-23T04:13:12;93883.63;;;3.49;46.08
30935;BME280;51033;42.648;23.292;2024-03-23T04:15:37;93884.75;;;3.32;46.57
30935;BME280;51033;42.648;23.292;2024-03-23T04:18:03;93887.63;;;3.31;46.82
30935;BME280;51033;42.648;23.292;2024-03-23T04:20:28;93889.72;;;3.24;46.83
30935;BME280;51033;42.648;23.292;2024-03-23T04:22:54;93877.13;;;3.26;46.87
30935;BME280;51033;42.648;23.292;2024-03-23T04:25:19;93878.69;;;3.37;46.52
30935;BME280;51033;42.648;23.292;2024-03-23T04:27:45;93890.22;;;3.41;46.69
30935;BME280;51033;42.648;23.292;2024-03-23T04:30:10;93876.28;;;3.40;46.51
30935;BME280;51033;42.648;23.292;2024-03-23T04:32:39;93881.59;;;3.20;47.00
30935;BME280;51033;42.648;23.292;2024-03-23T04:35:05;93894.75;;;3.05;47.60
30935;BME280;51033;42.648;23.292;2024-03-23T04:37:34;93884.78;;;2.92;48.20
30935;BME280;51033;42.648;23.292;2024-03-23T04:40:03;93890.03;;;3.02;48.09
30935;BME280;51033;42.648;23.292;2024-03-23T04:42:29;93883.19;;;2.96;48.38
30935;BME280;51033;42.648;23.292;2024-03-23T04:44:55;93892.91;;;3.11;47.97
30935;BME280;51033;42.648;23.292;2024-03-23T04:47:21;93885.53;;;3.28;47.75
30935;BME280;51033;42.648;23.292;2024-03-23T04:49:46;93893.13;;;3.45;47.28
30935;BME280;51033;42.648;23.292;2024-03-23T04:52:11;93900.19;;;3.59;46.90
30935;BME280;51033;42.648;23.292;2024-03-23T04:54:37;93896.72;;;3.69;46.60
30935;BME280;51033;42.648;23.292;2024-03-23T04:57:03;93899.34;;;3.74;46.75
30935;BME280;51033;42.648;23.292;2024-03-23T04:59:28;93897.78;;;3.63;47.01
30935;BME280;51033;42.648;23.292;2024-03-23T05:01:53;93895.09;;;3.83;46.64
30935;BME280;51033;42.648;23.292;2024-03-23T05:04:19;93898.25;;;3.85;46.78
30935;BME280;51033;42.648;23.292;2024-03-23T05:06:44;93881.63;;;4.05;46.34
30935;BME280;51033;42.648;23.292;2024-03-23T05:09:10;93902.03;;;4.28;46.63
30935;BME280;51033;42.648;23.292;2024-03-23T05:11:40;93895.19;;;4.32;46.87
30935;BME280;51033;42.648;23.292;2024-03-23T05:14:06;93889.28;;;4.50;46.52
30935;BME280;51033;42.648;23.292;2024-03-23T05:16:32;93886.25;;;4.72;46.57
30935;BME280;51033;42.648;23.292;2024-03-23T05:18:57;93888.91;;;4.67;46.93
30935;BME280;51033;42.648;23.292;2024-03-23T05:21:23;93886.97;;;4.83;46.79
30935;BME280;51033;42.648;23.292;2024-03-23T05:23:48;93881.69;;;4.83;47.01
30935;BME280;51033;42.648;23.292;2024-03-23T05:26:14;93866.69;;;4.83;47.05
30935;BME280;51033;42.648;23.292;2024-03-23T05:28:39;93877.75;;;4.80;47.11
30935;BME280;51033;42.648;23.292;2024-03-23T05:31:05;93876.81;;;5.00;46.95
30935;BME280;51033;42.648;23.292;2024-03-23T05:33:31;93878.44;;;4.96;47.12
30935;BME280;51033;42.648;23.292;2024-03-23T05:35:57;93874.97;;;5.00;47.14
30935;BME280;51033;42.648;23.292;2024-03-23T05:38:23;93875.22;;;5.04;46.87
30935;BME280;51033;42.648;23.292;2024-03-23T05:40:58;93866.03;;;4.96;47.16
30935;BME280;51033;42.648;23.292;2024-03-23T05:43:24;93883.56;;;5.11;47.17
30935;BME280;51033;42.648;23.292;2024-03-23T05:45:56;93888.00;;;4.87;47.36
30935;BME280;51033;42.648;23.292;2024-03-23T05:48:22;93882.28;;;5.08;47.04
30935;BME280;51033;42.648;23.292;2024-03-23T05:50:49;93892.78;;;5.42;46.65
30935;BME280;51033;42.648;23.292;2024-03-23T05:53:15;93883.22;;;5.51;46.11
30935;BME280;51033;42.648;23.292;2024-03-23T05:55:41;93884.09;;;5.42;46.12
30935;BME280;51033;42.648;23.292;2024-03-23T05:58:06;93881.59;;;5.27;46.70
30935;BME280;51033;42.648;23.292;2024-03-23T06:00:32;93883.63;;;5.06;47.02
30935;BME280;51033;42.648;23.292;2024-03-23T06:02:57;93887.47;;;5.47;46.25
30935;BME280;51033;42.648;23.292;2024-03-23T06:05:23;93883.28;;;5.70;45.77
30935;BME280;51033;42.648;23.292;2024-03-23T06:07:49;93865.13;;;5.87;45.48
30935;BME280;51033;42.648;23.292;2024-03-23T06:10:15;93882.34;;;6.04;44.37
30935;BME280;51033;42.648;23.292;2024-03-23T06:12:41;93884.13;;;5.89;44.94
30935;BME280;51033;42.648;23.292;2024-03-23T06:15:07;93881.28;;;6.05;44.84
30935;BME280;51033;42.648;23.292;2024-03-23T06:17:36;93880.25;;;5.29;45.16
30935;BME280;51033;42.648;23.292;2024-03-23T06:20:01;93872.19;;;5.44;46.05
30935;BME280;51033;42.648;23.292;2024-03-23T06:22:26;93869.22;;;5.98;45.37
30935;BME280;51033;42.648;23.292;2024-03-23T06:24:52;93869.03;;;6.14;44.48
30935;BME280;51033;42.648;23.292;2024-03-23T06:27:17;93874.31;;;6.14;43.90
30935;BME280;51033;42.648;23.292;2024-03-23T06:29:43;93878.38;;;6.30;44.74
30935;BME280;51033;42.648;23.292;2024-03-23T06:32:08;93870.09;;;6.55;44.28
30935;BME280;51033;42.648;23.292;2024-03-23T06:34:33;93872.16;;;6.58;43.83
30935;BME280;51033;42.648;23.292;2024-03-23T06:36:59;93862.59;;;6.62;44.17
30935;BME280;51033;42.648;23.292;2024-03-23T06:39:24;93878.97;;;6.64;43.36
30935;BME280;51033;42.648;23.292;2024-03-23T06:41:53;93870.53;;;6.95;43.48
30935;BME280;51033;42.648;23.292;2024-03-23T06:44:19;93875.84;;;7.27;43.34
30935;BME280;51033;42.648;23.292;2024-03-23T06:46:45;93879.91;;;7.06;43.37
30935;BME280;51033;42.648;23.292;2024-03-23T06:49:10;93878.03;;;7.06;42.88
30935;BME280;51033;42.648;23.292;2024-03-23T06:51:36;93876.09;;;7.12;42.89
30935;BME280;51033;42.648;23.292;2024-03-23T06:54:03;93871.56;;;7.31;42.88
30935;BME280;51033;42.648;23.292;2024-03-23T06:56:29;93872.00;;;7.19;43.33
30935;BME280;51033;42.648;23.292;2024-03-23T06:58:55;93873.94;;;7.46;42.43
30935;BME280;51033;42.648;23.292;2024-03-23T07:01:20;93868.84;;;7.04;43.32
30935;BME280;51033;42.648;23.292;2024-03-23T07:03:46;93873.31;;;7.36;42.31
30935;BME280;51033;42.648;23.292;2024-03-23T07:06:11;93873.13;;;7.32;43.23
30935;BME280;51033;42.648;23.292;2024-03-23T07:08:37;93869.72;;;7.45;43.31
30935;BME280;51033;42.648;23.292;2024-03-23T07:11:02;93861.38;;;7.38;42.71
30935;BME280;51033;42.648;23.292;2024-03-23T07:13:28;93869.44;;;7.47;42.95
30935;BME280;51033;42.648;23.292;2024-03-23T07:15:54;93863.78;;;7.67;42.29
30935;BME280;51033;42.648;23.292;2024-03-23T07:18:21;93862.03;;;7.76;42.09
30935;BME280;51033;42.648;23.292;2024-03-23T07:20:56;93854.38;;;7.75;41.54
30935;BME280;51033;42.648;23.292;2024-03-23T07:23:23;93858.44;;;7.53;42.43
30935;BME280;51033;42.648;23.292;2024-03-23T07:26:05;93849.59;;;7.90;41.68
30935;BME280;51033;42.648;23.292;2024-03-23T07:28:34;93855.94;;;8.03;41.70
30935;BME280;51033;42.648;23.292;2024-03-23T07:31:03;93853.47;;;7.52;42.88
30935;BME280;51033;42.648;23.292;2024-03-23T07:33:29;93843.78;;;7.75;42.25
30935;BME280;51033;42.648;23.292;2024-03-23T07:35:54;93850.56;;;7.21;44.30
30935;BME280;51033;42.648;23.292;2024-03-23T07:38:19;93844.44;;;7.53;42.57
30935;BME280;51033;42.648;23.292;2024-03-23T07:40:45;93846.34;;;7.80;42.26
30935;BME280;51033;42.648;23.292;2024-03-23T07:43:10;93847.09;;;7.66;42.33
30935;BME280;51033;42.648;23.292;2024-03-23T07:45:36;93840.94;;;7.57;42.16
30935;BME280;51033;42.648;23.292;2024-03-23T07:48:03;93848.25;;;7.47;42.21
30935;BME280;51033;42.648;23.292;2024-03-23T07:50:29;93837.94;;;7.78;41.72
30935;BME280;51033;42.648;23.292;2024-03-23T07:52:54;93835.84;;;7.88;41.62
30935;BME280;51033;42.648;23.292;2024-03-23T07:55:19;93833.47;;;8.14;41.06
30935;BME280;51033;42.648;23.292;2024-03-23T07:57:46;93838.56;;;8.24;40.34
30935;BME280;51033;42.648;23.292;2024-03-23T08:00:12;93838.50;;;8.02;41.19
30935;BME280;51033;42.648;23.292;2024-03-23T08:02:38;93836.63;;;8.16;41.73
30935;BME280;51033;42.648;23.292;2024-03-23T08:05:04;93841.59;;;8.31;41.20
30935;BME280;51033;42.648;23.292;2024-03-23T08:07:30;93834.88;;;8.47;40.12
30935;BME280;51033;42.648;23.292;2024-03-23T08:09:55;93843.44;;;8.44;40.64
30935;BME280;51033;42.648;23.292;2024-03-23T08:12:20;93826.91;;;8.47;40.34
30935;BME280;51033;42.648;23.292;2024-03-23T08:14:46;93835.84;;;8.51;41.48
30935;BME280;51033;42.648;23.292;2024-03-23T08:17:11;93837.31;;;8.22;40.89
30935;BME280;51033;42.648;23.292;2024-03-23T08:19:36;93832.50;;;8.59;40.80
30935;BME280;51033;42.648;23.292;2024-03-23T08:22:02;93819.13;;;8.65;40.45
30935;BME280;51033;42.648;23.292;2024-03-23T08:24:28;93827.88;;;8.87;40.12
30935;BME280;51033;42.648;23.292;2024-03-23T08:26:54;93822.63;;;8.74;40.10
30935;BME280;51033;42.648;23.292;2024-03-23T08:29:20;93823.63;;;8.86;39.86
30935;BME280;51033;42.648;23.292;2024-03-23T08:31:45;93816.41;;;9.00;39.81
30935;BME280;51033;42.648;23.292;2024-03-23T08:34:10;93824.47;;;8.95;39.24
30935;BME280;51033;42.648;23.292;2024-03-23T08:36:36;93819.66;;;8.97;39.15
30935;BME280;51033;42.648;23.292;2024-03-23T08:39:01;93814.47;;;8.92;39.06
30935;BME280;51033;42.648;23.292;2024-03-23T08:41:27;93815.59;;;9.00;39.99
30935;BME280;51033;42.648;23.292;2024-03-23T08:43:52;93815.88;;;8.90;38.49
30935;BME280;51033;42.648;23.292;2024-03-23T08:46:17;93803.22;;;9.09;38.54
30935;BME280;51033;42.648;23.292;2024-03-23T08:48:44;93804.03;;;8.96;39.24
30935;BME280;51033;42.648;23.292;2024-03-23T08:51:14;93795.16;;;9.14;37.74
30935;BME280;51033;42.648;23.292;2024-03-23T08:53:40;93786.09;;;9.15;38.16
30935;BME280;51033;42.648;23.292;2024-03-23T08:56:07;93793.13;;;9.51;38.18
30935;BME280;51033;42.648;23.292;2024-03-23T08:58:33;93790.59;;;9.45;37.86
30935;BME280;51033;42.648;23.292;2024-03-23T09:01:04;93780.25;;;9.35;37.82
30935;BME280;51033;42.648;23.292;2024-03-23T09:03:29;93782.25;;;9.30;37.50
30935;BME280;51033;42.648;23.292;2024-03-23T09:05:55;93788.28;;;9.13;38.19
30935;BME280;51033;42.648;23.292;2024-03-23T09:08:21;93770.22;;;9.01;38.22
30935;BME280;51033;42.648;23.292;2024-03-23T09:10:47;93776.09;;;9.43;37.77
30935;BME280;51033;42.648;23.292;2024-03-23T09:13:13;93770.69;;;9.65;38.22
30935;BME280;51033;42.648;23.292;2024-03-23T09:15:49;93768.81;;;9.66;36.81
30935;BME280;51033;42.648;23.292;2024-03-23T09:18:15;93767.63;;;9.89;37.38
30935;BME280;51033;42.648;23.292;2024-03-23T09:20:40;93763.09;;;9.81;36.36
30935;BME280;51033;42.648;23.292;2024-03-23T09:23:06;93764.66;;;9.82;36.44
30935;BME280;51033;42.648;23.292;2024-03-23T09:25:31;93748.44;;;9.92;36.52
30935;BME280;51033;42.648;23.292;2024-03-23T09:27:58;93751.69;;;9.89;36.35
30935;BME280;51033;42.648;23.292;2024-03-23T09:30:23;93745.63;;;9.97;36.33
30935;BME280;51033;42.648;23.292;2024-03-23T09:32:48;93743.47;;;10.25;35.39
30935;BME280;51033;42.648;23.292;2024-03-23T09:35:14;93743.34;;;10.39;34.72
30935;BME280;51033;42.648;23.292;2024-03-23T09:37:39;93747.69;;;10.26;34.23
30935;BME280;51033;42.648;23.292;2024-03-23T09:40:15;93741.75;;;10.29;33.99
30935;BME280;51033;42.648;23.292;2024-03-23T09:42:41;93728.00;;;10.53;34.13
30935;BME280;51033;42.648;23.292;2024-03-23T09:45:17;93728.59;;;10.67;32.41
30935;BME280;51033;42.648;23.292;2024-03-23T09:47:45;93717.69;;;10.60;33.91
30935;BME280;51033;42.648;23.292;2024-03-23T09:50:13;93710.16;;;10.27;34.93
30935;BME280;51033;42.648;23.292;2024-03-23T09:52:39;93717.22;;;10.49;34.23
30935;BME280;51033;42.648;23.292;2024-03-23T09:55:05;93715.00;;;10.08;34.76
30935;BME280;51033;42.648;23.292;2024-03-23T09:57:31;93707.75;;;9.66;36.62
30935;BME280;51033;42.648;23.292;2024-03-23T09:59:56;93702.34;;;10.22;35.05
30935;BME280;51033;42.648;23.292;2024-03-23T10:02:23;93700.16;;;10.42;34.90
30935;BME280;51033;42.648;23.292;2024-03-23T10:04:49;93699.09;;;10.51;35.13
30935;BME280;51033;42.648;23.292;2024-03-23T10:07:18;93694.69;;;10.29;36.83
30935;BME280;51033;42.648;23.292;2024-03-23T10:09:44;93685.13;;;10.63;34.10
30935;BME280;51033;42.648;23.292;2024-03-23T10:12:10;93684.69;;;10.61;34.78
30935;BME280;51033;42.648;23.292;2024-03-23T10:14:37;93678.91;;;10.50;34.80
30935;BME280;51033;42.648;23.292;2024-03-23T10:17:19;93679.72;;;10.97;34.89
30935;BME280;51033;42.648;23.292;2024-03-23T10:19:50;93682.00;;;11.25;33.76
30935;BME280;51033;42.648;23.292;2024-03-23T10:22:20;93667.69;;;11.00;34.91
30935;BME280;51033;42.648;23.292;2024-03-23T10:24:46;93666.03;;;11.16;35.27
30935;BME280;51033;42.648;23.292;2024-03-23T10:27:19;93660.69;;;11.25;35.00
30935;BME280;51033;42.648;23.292;2024-03-23T10:29:45;93667.00;;;11.41;33.13
30935;BME280;51033;42.648;23.292;2024-03-23T10:32:12;93660.13;;;11.40;33.47
30935;BME280;51033;42.648;23.292;2024-03-23T10:34:38;93648.63;;;11.56;33.39
30935;BME280;51033;42.648;23.292;2024-03-23T10:37:05;93650.88;;;11.75;33.48
30935;BME280;51033;42.648;23.292;2024-03-23T10:39:38;93648.00;;;11.80;33.23
30935;BME280;51033;42.648;23.292;2024-03-23T10:42:04;93629.16;;;11.85;32.19
30935;BME280;51033;42.648;23.292;2024-03-23T10:44:31;93625.00;;;11.96;31.72
30935;BME280;51033;42.648;23.292;2024-03-23T10:47:02;93623.97;;;12.10;31.08
30935;BME280;51033;42.648;23.292;2024-03-23T10:49:32;93614.78;;;11.98;31.80
30935;BME280;51033;42.648;23.292;2024-03-23T10:51:59;93613.56;;;11.96;32.12
30935;BME280;51033;42.648;23.292;2024-03-23T10:54:25;93602.19;;;12.08;32.07
30935;BME280;51033;42.648;23.292;2024-03-23T10:57:08;93609.91;;;11.59;34.25
30935;BME280;51033;42.648;23.292;2024-03-23T10:59:36;93605.91;;;11.53;33.12
30935;BME280;51033;42.648;23.292;2024-03-23T11:02:02;93597.47;;;11.92;32.79
30935;BME280;51033;42.648;23.292;2024-03-23T11:07:00;93590.88;;;12.11;32.09
30935;BME280;51033;42.648;23.292;2024-03-23T11:12:25;93574.25;;;12.26;32.97
30935;BME280;51033;42.648;23.292;2024-03-23T11:14:59;93570.31;;;12.11;32.80
30935;BME280;51033;42.648;23.292;2024-03-23T11:17:26;93555.19;;;12.36;31.15
30935;BME280;51033;42.648;23.292;2024-03-23T11:25:03;93547.19;;;12.36;30.96
30935;BME280;51033;42.648;23.292;2024-03-23T11:27:28;93549.66;;;12.41;30.66
30935;BME280;51033;42.648;23.292;2024-03-23T11:29:53;93545.88;;;12.54;31.16
30935;BME280;51033;42.648;23.292;2024-03-23T11:32:19;93540.63;;;12.91;30.17
30935;BME280;51033;42.648;23.292;2024-03-23T11:34:44;93531.72;;;12.99;29.81
30935;BME280;51033;42.648;23.292;2024-03-23T11:37:09;93535.38;;;13.06;30.36
30935;BME280;51033;42.648;23.292;2024-03-23T11:39:35;93530.59;;;12.87;29.56
30935;BME280;51033;42.648;23.292;2024-03-23T11:42:00;93519.28;;;12.91;29.81
30935;BME280;51033;42.648;23.292;2024-03-23T11:44:26;93523.25;;;12.84;30.48
30935;BME280;51033;42.648;23.292;2024-03-23T11:46:52;93514.13;;;12.98;31.20
30935;BME280;51033;42.648;23.292;2024-03-23T11:51:49;93501.84;;;13.33;30.84
30935;BME280;51033;42.648;23.292;2024-03-23T11:54:15;93499.56;;;12.95;30.17
30935;BME280;51033;42.648;23.292;2024-03-23T11:56:40;93491.97;;;13.21;34.38
30935;BME280;51033;42.648;23.292;2024-03-23T11:59:09;93487.22;;;13.15;31.81
30935;BME280;51033;42.648;23.292;2024-03-23T12:01:34;93480.53;;;13.09;30.84
30935;BME280;51033;42.648;23.292;2024-03-23T12:04:00;93479.44;;;13.62;29.66
30935;BME280;51033;42.648;23.292;2024-03-23T12:06:25;93475.25;;;13.77;29.49
30935;BME280;51033;42.648;23.292;2024-03-23T12:08:50;93466.59;;;13.67;29.48
30935;BME280;51033;42.648;23.292;2024-03-23T12:11:17;93463.69;;;13.72;30.89
30935;BME280;51033;42.648;23.292;2024-03-23T12:13:44;93454.34;;;13.66;29.45
30935;BME280;51033;42.648;23.292;2024-03-23T12:16:18;93451.31;;;13.96;30.38
30935;BME280;51033;42.648;23.292;2024-03-23T12:18:49;93453.38;;;13.87;29.12
30935;BME280;51033;42.648;23.292;2024-03-23T12:21:15;93455.13;;;13.95;28.81
30935;BME280;51033;42.648;23.292;2024-03-23T12:23:42;93438.69;;;14.24;29.25
30935;BME280;51033;42.648;23.292;2024-03-23T12:26:09;93438.84;;;14.15;28.38
30935;BME280;51033;42.648;23.292;2024-03-23T12:28:35;93439.94;;;13.99;28.22
30935;BME280;51033;42.648;23.292;2024-03-23T12:31:00;93438.25;;;14.22;27.87
30935;BME280;51033;42.648;23.292;2024-03-23T12:33:26;93432.13;;;14.37;29.30
30935;BME280;51033;42.648;23.292;2024-03-23T12:35:51;93418.53;;;13.99;28.36
30935;BME280;51033;42.648;23.292;2024-03-23T12:38:17;93419.28;;;13.68;29.33
30935;BME280;51033;42.648;23.292;2024-03-23T12:40:49;93402.66;;;13.47;26.25
30935;BME280;51033;42.648;23.292;2024-03-23T12:43:15;93400.97;;;13.54;28.07
30935;BME280;51033;42.648;23.292;2024-03-23T12:45:41;93402.81;;;13.66;27.80
30935;BME280;51033;42.648;23.292;2024-03-23T12:48:07;93389.22;;;13.31;27.25
30935;BME280;51033;42.648;23.292;2024-03-23T12:50:32;93402.28;;;13.60;28.00
30935;BME280;51033;42.648;23.292;2024-03-23T12:52:58;93398.56;;;13.93;25.22
30935;BME280;51033;42.648;23.292;2024-03-23T12:55:23;93391.72;;;13.95;25.08
30935;BME280;51033;42.648;23.292;2024-03-23T12:57:49;93391.03;;;14.45;24.47
30935;BME280;51033;42.648;23.292;2024-03-23T13:00:14;93378.50;;;14.81;24.77
30935;BME280;51033;42.648;23.292;2024-03-23T13:02:42;93379.66;;;14.99;23.96
30935;BME280;51033;42.648;23.292;2024-03-23T13:05:07;93378.94;;;15.02;24.72
30935;BME280;51033;42.648;23.292;2024-03-23T13:07:34;93371.41;;;15.08;21.65
30935;BME280;51033;42.648;23.292;2024-03-23T13:10:00;93337.06;;;14.75;23.53
30935;BME280;51033;42.648;23.292;2024-03-23T13:12:26;93366.53;;;14.43;25.12
30935;BME280;51033;42.648;23.292;2024-03-23T13:14:51;93374.16;;;14.10;27.69
30935;BME280;51033;42.648;23.292;2024-03-23T13:17:16;93366.31;;;14.17;25.82
30935;BME280;51033;42.648;23.292;2024-03-23T13:19:42;93365.88;;;14.31;26.40
30935;BME280;51033;42.648;23.292;2024-03-23T13:22:07;93360.59;;;14.34;24.20
30935;BME280;51033;42.648;23.292;2024-03-23T13:24:33;93351.44;;;14.51;23.47
30935;BME280;51033;42.648;23.292;2024-03-23T13:26:58;93347.03;;;14.58;22.71
30935;BME280;51033;42.648;23.292;2024-03-23T13:29:24;93347.63;;;14.87;23.18
30935;BME280;51033;42.648;23.292;2024-03-23T13:31:51;93344.69;;;15.11;22.44
30935;BME280;51033;42.648;23.292;2024-03-23T13:34:17;93341.44;;;15.02;23.42
30935;BME280;51033;42.648;23.292;2024-03-23T13:36:44;93345.84;;;15.29;23.12
30935;BME280;51033;42.648;23.292;2024-03-23T13:39:10;93334.06;;;15.34;22.63
30935;BME280;51033;42.648;23.292;2024-03-23T13:41:40;93344.69;;;15.30;25.21
30935;BME280;51033;42.648;23.292;2024-03-23T13:44:06;93334.97;;;15.61;23.69
30935;BME280;51033;42.648;23.292;2024-03-23T13:46:32;93329.06;;;15.74;22.77
30935;BME280;51033;42.648;23.292;2024-03-23T13:48:58;93333.19;;;15.68;23.98
30935;BME280;51033;42.648;23.292;2024-03-23T13:51:24;93325.44;;;15.86;22.42
30935;BME280;51033;42.648;23.292;2024-03-23T13:53:52;93318.16;;;16.09;22.42
30935;BME280;51033;42.648;23.292;2024-03-23T13:56:18;93315.97;;;15.92;21.99
30935;BME280;51033;42.648;23.292;2024-03-23T13:58:43;93317.63;;;15.55;22.26